Terminal Aerodrome Forecast
Issued by NWS Brownsville, TX

Home | Current Version | Previous Version | Text Only | Print | Product List | Glossary On
Versions: 1 2 3 4 5 6 7 8 9 10 11 12 13 14 15 16 17 18 19 20 21 22 23 24
738
FTUS44 KBRO 272329
TAFBRO
TAF
KBRO 272329Z 2800/2824 10009KT P6SM FEW020 SCT100 BKN250
     FM280400 VRB03KT P6SM FEW025 SCT250
     FM281200 11005KT P6SM VCSH SCT025 BKN040
     FM281700 09008KT P6SM VCTS BKN040CB=

USA.gov is the U.S. government's official web portal to all federal, state and local government web resources and services.